sensor_id;sensor_type;location;lat;lon;timestamp;P1;durP1;ratioP1;P2;durP2;ratioP2
21243;SDS011;10780;50.942;4.028;2023-02-13T00:02:11;68.88;;;33.13;;
21243;SDS011;10780;50.942;4.028;2023-02-13T00:04:38;63.90;;;31.05;;
21243;SDS011;10780;50.942;4.028;2023-02-13T00:07:03;64.63;;;31.60;;
21243;SDS011;10780;50.942;4.028;2023-02-13T00:09:29;61.40;;;31.13;;
21243;SDS011;10780;50.942;4.028;2023-02-13T00:11:55;67.40;;;31.67;;
21243;SDS011;10780;50.942;4.028;2023-02-13T00:14:20;66.80;;;32.33;;
21243;SDS011;10780;50.942;4.028;2023-02-13T00:16:46;63.47;;;31.00;;
21243;SDS011;10780;50.942;4.028;2023-02-13T00:19:11;68.93;;;31.67;;
21243;SDS011;10780;50.942;4.028;2023-02-13T00:21:37;67.25;;;31.05;;
21243;SDS011;10780;50.942;4.028;2023-02-13T00:24:03;67.75;;;31.13;;
21243;SDS011;10780;50.942;4.028;2023-02-13T00:26:29;66.55;;;31.30;;
21243;SDS011;10780;50.942;4.028;2023-02-13T00:28:55;65.72;;;29.63;;
21243;SDS011;10780;50.942;4.028;2023-02-13T00:31:21;65.68;;;32.38;;
21243;SDS011;10780;50.942;4.028;2023-02-13T00:33:47;71.82;;;33.40;;
21243;SDS011;10780;50.942;4.028;2023-02-13T00:36:13;63.13;;;32.83;;
21243;SDS011;10780;50.942;4.028;2023-02-13T00:38:44;64.43;;;32.17;;
21243;SDS011;10780;50.942;4.028;2023-02-13T00:41:10;73.82;;;33.67;;
21243;SDS011;10780;50.942;4.028;2023-02-13T00:43:36;68.60;;;32.83;;
21243;SDS011;10780;50.942;4.028;2023-02-13T00:46:02;67.93;;;34.15;;
21243;SDS011;10780;50.942;4.028;2023-02-13T00:48:29;70.57;;;32.65;;
21243;SDS011;10780;50.942;4.028;2023-02-13T00:50:56;71.15;;;31.73;;
21243;SDS011;10780;50.942;4.028;2023-02-13T00:53:22;70.47;;;31.55;;
21243;SDS011;10780;50.942;4.028;2023-02-13T00:55:49;69.65;;;32.78;;
21243;SDS011;10780;50.942;4.028;2023-02-13T00:58:15;69.72;;;33.47;;
21243;SDS011;10780;50.942;4.028;2023-02-13T01:00:41;74.05;;;35.38;;
21243;SDS011;10780;50.942;4.028;2023-02-13T01:03:07;69.93;;;32.75;;
21243;SDS011;10780;50.942;4.028;2023-02-13T01:05:33;65.93;;;31.98;;
21243;SDS011;10780;50.942;4.028;2023-02-13T01:07:59;72.57;;;32.85;;
21243;SDS011;10780;50.942;4.028;2023-02-13T01:10:24;75.10;;;32.80;;
21243;SDS011;10780;50.942;4.028;2023-02-13T01:12:50;72.25;;;32.50;;
21243;SDS011;10780;50.942;4.028;2023-02-13T01:15:16;72.75;;;34.65;;
21243;SDS011;10780;50.942;4.028;2023-02-13T01:17:42;77.65;;;35.10;;
21243;SDS011;10780;50.942;4.028;2023-02-13T01:20:09;70.82;;;33.05;;
21243;SDS011;10780;50.942;4.028;2023-02-13T01:22:36;75.22;;;34.30;;
21243;SDS011;10780;50.942;4.028;2023-02-13T01:25:03;74.75;;;32.80;;
21243;SDS011;10780;50.942;4.028;2023-02-13T01:27:30;76.43;;;34.63;;
21243;SDS011;10780;50.942;4.028;2023-02-13T01:29:56;71.50;;;32.95;;
21243;SDS011;10780;50.942;4.028;2023-02-13T01:32:22;69.90;;;31.35;;
21243;SDS011;10780;50.942;4.028;2023-02-13T01:34:48;72.18;;;33.50;;
21243;SDS011;10780;50.942;4.028;2023-02-13T01:37:13;73.07;;;32.90;;
21243;SDS011;10780;50.942;4.028;2023-02-13T01:39:39;81.43;;;34.35;;
21243;SDS011;10780;50.942;4.028;2023-02-13T01:42:05;79.65;;;33.58;;
21243;SDS011;10780;50.942;4.028;2023-02-13T01:50:21;73.65;;;33.30;;
21243;SDS011;10780;50.942;4.028;2023-02-13T01:52:54;79.55;;;34.78;;
21243;SDS011;10780;50.942;4.028;2023-02-13T01:55:24;77.72;;;33.92;;
21243;SDS011;10780;50.942;4.028;2023-02-13T01:58:02;76.55;;;34.63;;
21243;SDS011;10780;50.942;4.028;2023-02-13T02:00:31;75.43;;;32.58;;
21243;SDS011;10780;50.942;4.028;2023-02-13T02:03:03;71.90;;;34.13;;
21243;SDS011;10780;50.942;4.028;2023-02-13T02:05:35;78.63;;;33.63;;
21243;SDS011;10780;50.942;4.028;2023-02-13T02:08:01;81.80;;;36.20;;
21243;SDS011;10780;50.942;4.028;2023-02-13T02:10:30;76.43;;;35.35;;
21243;SDS011;10780;50.942;4.028;2023-02-13T02:15:24;73.30;;;33.75;;
21243;SDS011;10780;50.942;4.028;2023-02-13T02:17:50;75.32;;;33.92;;
21243;SDS011;10780;50.942;4.028;2023-02-13T02:20:23;80.47;;;35.17;;
21243;SDS011;10780;50.942;4.028;2023-02-13T02:33:31;70.72;;;35.25;;
21243;SDS011;10780;50.942;4.028;2023-02-13T02:39:02;75.13;;;33.13;;
21243;SDS011;10780;50.942;4.028;2023-02-13T02:42:00;80.32;;;34.08;;
21243;SDS011;10780;50.942;4.028;2023-02-13T02:44:42;74.72;;;33.67;;
21243;SDS011;10780;50.942;4.028;2023-02-13T02:53:05;78.60;;;32.75;;
21243;SDS011;10780;50.942;4.028;2023-02-13T02:55:37;72.18;;;33.38;;
21243;SDS011;10780;50.942;4.028;2023-02-13T03:00:56;70.53;;;31.42;;
21243;SDS011;10780;50.942;4.028;2023-02-13T03:03:43;74.22;;;33.50;;
21243;SDS011;10780;50.942;4.028;2023-02-13T03:06:48;74.53;;;32.58;;
21243;SDS011;10780;50.942;4.028;2023-02-13T03:09:30;82.10;;;33.13;;
21243;SDS011;10780;50.942;4.028;2023-02-13T03:12:20;76.93;;;33.85;;
21243;SDS011;10780;50.942;4.028;2023-02-13T03:15:07;68.10;;;32.38;;
21243;SDS011;10780;50.942;4.028;2023-02-13T03:17:33;77.38;;;33.05;;
21243;SDS011;10780;50.942;4.028;2023-02-13T03:28:21;74.43;;;31.15;;
21243;SDS011;10780;50.942;4.028;2023-02-13T03:31:43;72.72;;;32.45;;
21243;SDS011;10780;50.942;4.028;2023-02-13T03:34:22;75.82;;;33.10;;
21243;SDS011;10780;50.942;4.028;2023-02-13T03:37:10;78.15;;;33.42;;
21243;SDS011;10780;50.942;4.028;2023-02-13T03:40:02;71.38;;;32.38;;
21243;SDS011;10780;50.942;4.028;2023-02-13T03:42:38;73.57;;;32.53;;
21243;SDS011;10780;50.942;4.028;2023-02-13T03:45:29;73.28;;;31.20;;
21243;SDS011;10780;50.942;4.028;2023-02-13T03:48:26;70.00;;;31.27;;
21243;SDS011;10780;50.942;4.028;2023-02-13T03:51:19;73.22;;;31.25;;
21243;SDS011;10780;50.942;4.028;2023-02-13T03:53:49;67.72;;;30.30;;
21243;SDS011;10780;50.942;4.028;2023-02-13T03:56:20;71.65;;;33.17;;
21243;SDS011;10780;50.942;4.028;2023-02-13T03:59:07;69.88;;;31.73;;
21243;SDS011;10780;50.942;4.028;2023-02-13T04:01:49;79.32;;;31.30;;
21243;SDS011;10780;50.942;4.028;2023-02-13T04:04:29;80.13;;;32.65;;
21243;SDS011;10780;50.942;4.028;2023-02-13T04:07:13;74.22;;;32.50;;
21243;SDS011;10780;50.942;4.028;2023-02-13T04:09:53;71.57;;;30.80;;
21243;SDS011;10780;50.942;4.028;2023-02-13T04:12:22;64.65;;;30.83;;
21243;SDS011;10780;50.942;4.028;2023-02-13T04:14:58;70.15;;;30.30;;
21243;SDS011;10780;50.942;4.028;2023-02-13T04:17:34;72.95;;;32.63;;
21243;SDS011;10780;50.942;4.028;2023-02-13T04:20:05;60.58;;;30.52;;
21243;SDS011;10780;50.942;4.028;2023-02-13T04:22:32;67.03;;;29.85;;
21243;SDS011;10780;50.942;4.028;2023-02-13T04:24:57;64.63;;;29.55;;
21243;SDS011;10780;50.942;4.028;2023-02-13T04:27:24;68.93;;;31.23;;
21243;SDS011;10780;50.942;4.028;2023-02-13T04:29:52;70.82;;;30.95;;
21243;SDS011;10780;50.942;4.028;2023-02-13T04:32:17;64.00;;;29.55;;
21243;SDS011;10780;50.942;4.028;2023-02-13T04:34:43;65.82;;;30.65;;
21243;SDS011;10780;50.942;4.028;2023-02-13T04:37:08;70.55;;;31.05;;
21243;SDS011;10780;50.942;4.028;2023-02-13T04:39:34;73.43;;;31.40;;
21243;SDS011;10780;50.942;4.028;2023-02-13T04:42:00;73.13;;;32.85;;
21243;SDS011;10780;50.942;4.028;2023-02-13T04:44:25;68.97;;;29.67;;
21243;SDS011;10780;50.942;4.028;2023-02-13T04:46:51;68.45;;;29.85;;
21243;SDS011;10780;50.942;4.028;2023-02-13T04:49:16;78.05;;;32.20;;
21243;SDS011;10780;50.942;4.028;2023-02-13T04:51:42;70.43;;;30.30;;
21243;SDS011;10780;50.942;4.028;2023-02-13T04:54:09;67.70;;;31.60;;
21243;SDS011;10780;50.942;4.028;2023-02-13T04:56:35;68.25;;;30.92;;
21243;SDS011;10780;50.942;4.028;2023-02-13T04:59:00;71.47;;;32.88;;
21243;SDS011;10780;50.942;4.028;2023-02-13T05:01:26;68.72;;;31.40;;
21243;SDS011;10780;50.942;4.028;2023-02-13T05:03:51;70.82;;;31.38;;
21243;SDS011;10780;50.942;4.028;2023-02-13T05:06:17;66.72;;;30.65;;
21243;SDS011;10780;50.942;4.028;2023-02-13T05:08:43;64.28;;;31.90;;
21243;SDS011;10780;50.942;4.028;2023-02-13T05:11:08;67.20;;;30.13;;
21243;SDS011;10780;50.942;4.028;2023-02-13T05:13:34;67.68;;;31.00;;
21243;SDS011;10780;50.942;4.028;2023-02-13T05:16:00;67.28;;;29.23;;
21243;SDS011;10780;50.942;4.028;2023-02-13T05:18:25;63.60;;;28.95;;
21243;SDS011;10780;50.942;4.028;2023-02-13T05:20:51;65.07;;;28.75;;
21243;SDS011;10780;50.942;4.028;2023-02-13T05:23:35;75.22;;;30.83;;
21243;SDS011;10780;50.942;4.028;2023-02-13T05:26:01;74.70;;;31.92;;
21243;SDS011;10780;50.942;4.028;2023-02-13T05:28:27;75.43;;;31.52;;
21243;SDS011;10780;50.942;4.028;2023-02-13T05:31:11;72.63;;;30.77;;
21243;SDS011;10780;50.942;4.028;2023-02-13T05:33:37;74.05;;;32.15;;
21243;SDS011;10780;50.942;4.028;2023-02-13T05:36:02;67.00;;;29.75;;
21243;SDS011;10780;50.942;4.028;2023-02-13T05:38:28;70.45;;;29.98;;
21243;SDS011;10780;50.942;4.028;2023-02-13T05:40:54;72.97;;;30.83;;
21243;SDS011;10780;50.942;4.028;2023-02-13T05:43:19;66.50;;;30.65;;
21243;SDS011;10780;50.942;4.028;2023-02-13T05:45:45;72.50;;;29.40;;
21243;SDS011;10780;50.942;4.028;2023-02-13T05:48:12;64.57;;;29.65;;
21243;SDS011;10780;50.942;4.028;2023-02-13T05:50:37;58.08;;;28.27;;
21243;SDS011;10780;50.942;4.028;2023-02-13T05:53:03;65.20;;;30.45;;
21243;SDS011;10780;50.942;4.028;2023-02-13T05:55:28;64.22;;;28.20;;
21243;SDS011;10780;50.942;4.028;2023-02-13T05:57:55;55.95;;;27.05;;
21243;SDS011;10780;50.942;4.028;2023-02-13T06:00:21;57.60;;;26.77;;
21243;SDS011;10780;50.942;4.028;2023-02-13T06:02:47;56.08;;;26.38;;
21243;SDS011;10780;50.942;4.028;2023-02-13T06:05:13;61.20;;;28.98;;
21243;SDS011;10780;50.942;4.028;2023-02-13T06:07:38;62.15;;;29.85;;
21243;SDS011;10780;50.942;4.028;2023-02-13T06:10:04;61.75;;;29.42;;
21243;SDS011;10780;50.942;4.028;2023-02-13T06:12:30;60.60;;;29.05;;
21243;SDS011;10780;50.942;4.028;2023-02-13T06:14:56;58.00;;;28.98;;
21243;SDS011;10780;50.942;4.028;2023-02-13T06:17:21;59.88;;;29.13;;
21243;SDS011;10780;50.942;4.028;2023-02-13T06:19:47;53.28;;;26.55;;
21243;SDS011;10780;50.942;4.028;2023-02-13T06:22:12;51.88;;;25.73;;
21243;SDS011;10780;50.942;4.028;2023-02-13T06:24:38;50.03;;;24.25;;
21243;SDS011;10780;50.942;4.028;2023-02-13T06:27:04;46.47;;;22.75;;
21243;SDS011;10780;50.942;4.028;2023-02-13T06:29:29;46.85;;;23.40;;
21243;SDS011;10780;50.942;4.028;2023-02-13T06:31:57;49.00;;;23.90;;
21243;SDS011;10780;50.942;4.028;2023-02-13T06:34:22;50.08;;;23.58;;
21243;SDS011;10780;50.942;4.028;2023-02-13T06:36:48;47.95;;;24.95;;
21243;SDS011;10780;50.942;4.028;2023-02-13T06:39:14;53.45;;;25.13;;
21243;SDS011;10780;50.942;4.028;2023-02-13T06:41:39;56.95;;;24.88;;
21243;SDS011;10780;50.942;4.028;2023-02-13T06:44:05;48.72;;;25.20;;
21243;SDS011;10780;50.942;4.028;2023-02-13T06:46:31;53.35;;;25.90;;
21243;SDS011;10780;50.942;4.028;2023-02-13T06:48:57;58.70;;;26.10;;
21243;SDS011;10780;50.942;4.028;2023-02-13T06:51:23;58.13;;;28.35;;
21243;SDS011;10780;50.942;4.028;2023-02-13T06:53:48;60.83;;;29.10;;
21243;SDS011;10780;50.942;4.028;2023-02-13T06:56:14;66.30;;;32.28;;
21243;SDS011;10780;50.942;4.028;2023-02-13T06:58:40;76.55;;;33.50;;
21243;SDS011;10780;50.942;4.028;2023-02-13T07:01:06;63.30;;;30.67;;
21243;SDS011;10780;50.942;4.028;2023-02-13T07:03:31;62.05;;;29.90;;
21243;SDS011;10780;50.942;4.028;2023-02-13T07:05:57;57.17;;;29.00;;
21243;SDS011;10780;50.942;4.028;2023-02-13T07:08:23;59.65;;;28.35;;
21243;SDS011;10780;50.942;4.028;2023-02-13T07:10:50;61.13;;;27.33;;
21243;SDS011;10780;50.942;4.028;2023-02-13T07:13:16;55.10;;;26.95;;
21243;SDS011;10780;50.942;4.028;2023-02-13T07:15:41;60.50;;;28.10;;
21243;SDS011;10780;50.942;4.028;2023-02-13T07:18:07;51.72;;;27.63;;
21243;SDS011;10780;50.942;4.028;2023-02-13T07:20:33;52.85;;;27.23;;
21243;SDS011;10780;50.942;4.028;2023-02-13T07:23:05;57.53;;;28.73;;
21243;SDS011;10780;50.942;4.028;2023-02-13T07:25:32;60.78;;;29.40;;
21243;SDS011;10780;50.942;4.028;2023-02-13T07:28:02;59.28;;;29.08;;
21243;SDS011;10780;50.942;4.028;2023-02-13T07:30:31;61.13;;;28.98;;
21243;SDS011;10780;50.942;4.028;2023-02-13T07:32:59;53.28;;;27.98;;
21243;SDS011;10780;50.942;4.028;2023-02-13T07:35:26;55.13;;;26.58;;
21243;SDS011;10780;50.942;4.028;2023-02-13T07:37:52;58.15;;;27.65;;
21243;SDS011;10780;50.942;4.028;2023-02-13T07:40:19;55.63;;;28.83;;
21243;SDS011;10780;50.942;4.028;2023-02-13T07:42:46;52.17;;;27.10;;
21243;SDS011;10780;50.942;4.028;2023-02-13T07:45:12;60.22;;;27.42;;
21243;SDS011;10780;50.942;4.028;2023-02-13T07:47:39;54.75;;;27.00;;
21243;SDS011;10780;50.942;4.028;2023-02-13T07:50:05;56.92;;;28.52;;
21243;SDS011;10780;50.942;4.028;2023-02-13T07:52:31;52.72;;;27.13;;
21243;SDS011;10780;50.942;4.028;2023-02-13T07:54:57;56.45;;;27.42;;
21243;SDS011;10780;50.942;4.028;2023-02-13T07:57:23;55.53;;;27.15;;
21243;SDS011;10780;50.942;4.028;2023-02-13T07:59:49;49.95;;;26.83;;
21243;SDS011;10780;50.942;4.028;2023-02-13T08:02:14;55.53;;;26.80;;
21243;SDS011;10780;50.942;4.028;2023-02-13T08:04:41;55.40;;;27.20;;
21243;SDS011;10780;50.942;4.028;2023-02-13T08:07:10;53.67;;;27.73;;
21243;SDS011;10780;50.942;4.028;2023-02-13T08:09:37;59.42;;;26.73;;
21243;SDS011;10780;50.942;4.028;2023-02-13T08:12:21;55.25;;;26.60;;
21243;SDS011;10780;50.942;4.028;2023-02-13T08:14:47;55.33;;;26.85;;
21243;SDS011;10780;50.942;4.028;2023-02-13T08:17:12;54.58;;;26.50;;
21243;SDS011;10780;50.942;4.028;2023-02-13T08:19:38;55.65;;;28.40;;
21243;SDS011;10780;50.942;4.028;2023-02-13T08:22:04;60.35;;;27.30;;
21243;SDS011;10780;50.942;4.028;2023-02-13T08:24:31;51.50;;;26.70;;
21243;SDS011;10780;50.942;4.028;2023-02-13T08:26:57;60.90;;;26.83;;
21243;SDS011;10780;50.942;4.028;2023-02-13T08:29:23;56.15;;;27.40;;
21243;SDS011;10780;50.942;4.028;2023-02-13T08:31:49;55.30;;;28.10;;
21243;SDS011;10780;50.942;4.028;2023-02-13T08:34:15;54.70;;;27.02;;
21243;SDS011;10780;50.942;4.028;2023-02-13T08:36:41;50.88;;;25.75;;
21243;SDS011;10780;50.942;4.028;2023-02-13T08:39:07;50.35;;;26.25;;
21243;SDS011;10780;50.942;4.028;2023-02-13T08:41:35;54.10;;;26.48;;
21243;SDS011;10780;50.942;4.028;2023-02-13T08:44:01;50.55;;;26.42;;
21243;SDS011;10780;50.942;4.028;2023-02-13T08:46:27;48.50;;;26.73;;
21243;SDS011;10780;50.942;4.028;2023-02-13T08:48:53;52.75;;;25.77;;
21243;SDS011;10780;50.942;4.028;2023-02-13T08:51:19;50.15;;;26.02;;
21243;SDS011;10780;50.942;4.028;2023-02-13T08:53:44;46.33;;;25.27;;
21243;SDS011;10780;50.942;4.028;2023-02-13T08:56:10;51.53;;;24.90;;
21243;SDS011;10780;50.942;4.028;2023-02-13T08:58:36;47.22;;;25.67;;
21243;SDS011;10780;50.942;4.028;2023-02-13T09:01:04;52.83;;;28.08;;
21243;SDS011;10780;50.942;4.028;2023-02-13T09:03:31;53.25;;;25.88;;
21243;SDS011;10780;50.942;4.028;2023-02-13T09:05:57;50.15;;;27.38;;
21243;SDS011;10780;50.942;4.028;2023-02-13T09:08:24;52.20;;;27.77;;
21243;SDS011;10780;50.942;4.028;2023-02-13T09:10:56;53.97;;;27.27;;
21243;SDS011;10780;50.942;4.028;2023-02-13T09:13:29;52.83;;;28.40;;
21243;SDS011;10780;50.942;4.028;2023-02-13T09:16:17;56.90;;;29.33;;
21243;SDS011;10780;50.942;4.028;2023-02-13T09:19:15;57.70;;;27.95;;
21243;SDS011;10780;50.942;4.028;2023-02-13T09:21:53;47.40;;;24.20;;
21243;SDS011;10780;50.942;4.028;2023-02-13T09:24:20;36.70;;;22.55;;
21243;SDS011;10780;50.942;4.028;2023-02-13T09:26:46;41.03;;;22.42;;
21243;SDS011;10780;50.942;4.028;2023-02-13T09:29:12;41.40;;;22.83;;
21243;SDS011;10780;50.942;4.028;2023-02-13T09:31:38;43.13;;;23.38;;
21243;SDS011;10780;50.942;4.028;2023-02-13T09:34:05;36.20;;;21.75;;
21243;SDS011;10780;50.942;4.028;2023-02-13T09:36:37;42.97;;;23.00;;
21243;SDS011;10780;50.942;4.028;2023-02-13T09:39:03;42.00;;;23.15;;
21243;SDS011;10780;50.942;4.028;2023-02-13T09:41:30;41.10;;;21.52;;
21243;SDS011;10780;50.942;4.028;2023-02-13T09:44:05;41.03;;;22.63;;
21243;SDS011;10780;50.942;4.028;2023-02-13T09:47:16;36.67;;;20.63;;
21243;SDS011;10780;50.942;4.028;2023-02-13T09:50:24;36.80;;;20.27;;
21243;SDS011;10780;50.942;4.028;2023-02-13T09:53:00;34.20;;;19.73;;
21243;SDS011;10780;50.942;4.028;2023-02-13T09:55:49;36.42;;;20.27;;
21243;SDS011;10780;50.942;4.028;2023-02-13T09:58:45;34.83;;;19.85;;
21243;SDS011;10780;50.942;4.028;2023-02-13T10:01:40;38.25;;;21.92;;
21243;SDS011;10780;50.942;4.028;2023-02-13T10:17:55;30.92;;;17.65;;
21243;SDS011;10780;50.942;4.028;2023-02-13T10:20:49;31.00;;;18.08;;
21243;SDS011;10780;50.942;4.028;2023-02-13T10:23:25;32.65;;;17.55;;
21243;SDS011;10780;50.942;4.028;2023-02-13T10:26:11;30.50;;;16.85;;
21243;SDS011;10780;50.942;4.028;2023-02-13T10:28:43;34.10;;;19.42;;
21243;SDS011;10780;50.942;4.028;2023-02-13T10:31:38;33.15;;;18.88;;
21243;SDS011;10780;50.942;4.028;2023-02-13T10:34:10;35.30;;;19.30;;
21243;SDS011;10780;50.942;4.028;2023-02-13T10:36:43;39.72;;;20.25;;
21243;SDS011;10780;50.942;4.028;2023-02-13T10:39:21;37.08;;;19.70;;
21243;SDS011;10780;50.942;4.028;2023-02-13T10:41:56;33.88;;;19.45;;
21243;SDS011;10780;50.942;4.028;2023-02-13T10:44:58;38.28;;;20.08;;
21243;SDS011;10780;50.942;4.028;2023-02-13T10:56:39;35.58;;;19.25;;
21243;SDS011;10780;50.942;4.028;2023-02-13T11:01:52;30.38;;;18.23;;
21243;SDS011;10780;50.942;4.028;2023-02-13T11:04:21;35.38;;;20.17;;
21243;SDS011;10780;50.942;4.028;2023-02-13T11:06:53;35.38;;;22.63;;
21243;SDS011;10780;50.942;4.028;2023-02-13T11:09:22;33.85;;;19.83;;
21243;SDS011;10780;50.942;4.028;2023-02-13T11:11:48;32.55;;;19.25;;
21243;SDS011;10780;50.942;4.028;2023-02-13T11:16:58;33.60;;;19.42;;
21243;SDS011;10780;50.942;4.028;2023-02-13T11:22:27;35.95;;;19.92;;
21243;SDS011;10780;50.942;4.028;2023-02-13T11:25:01;34.72;;;19.50;;
21243;SDS011;10780;50.942;4.028;2023-02-13T11:30:42;34.17;;;19.15;;
21243;SDS011;10780;50.942;4.028;2023-02-13T11:33:26;33.42;;;19.58;;
21243;SDS011;10780;50.942;4.028;2023-02-13T11:36:08;34.90;;;19.40;;
21243;SDS011;10780;50.942;4.028;2023-02-13T11:38:42;34.80;;;20.23;;
21243;SDS011;10780;50.942;4.028;2023-02-13T11:41:09;40.47;;;22.70;;
21243;SDS011;10780;50.942;4.028;2023-02-13T11:43:47;35.78;;;22.38;;
21243;SDS011;10780;50.942;4.028;2023-02-13T11:46:41;37.53;;;20.95;;
21243;SDS011;10780;50.942;4.028;2023-02-13T11:50:00;35.72;;;19.58;;
21243;SDS011;10780;50.942;4.028;2023-02-13T11:52:40;32.60;;;18.52;;
21243;SDS011;10780;50.942;4.028;2023-02-13T11:55:26;32.15;;;19.05;;
21243;SDS011;10780;50.942;4.028;2023-02-13T11:58:02;34.75;;;19.23;;
21243;SDS011;10780;50.942;4.028;2023-02-13T12:00:46;31.15;;;18.90;;
21243;SDS011;10780;50.942;4.028;2023-02-13T12:03:26;28.88;;;18.95;;
21243;SDS011;10780;50.942;4.028;2023-02-13T12:08:38;32.00;;;18.98;;
21243;SDS011;10780;50.942;4.028;2023-02-13T12:14:10;27.98;;;18.05;;
21243;SDS011;10780;50.942;4.028;2023-02-13T12:16:44;32.58;;;19.52;;
21243;SDS011;10780;50.942;4.028;2023-02-13T12:19:24;31.70;;;18.60;;
21243;SDS011;10780;50.942;4.028;2023-02-13T12:22:18;35.55;;;19.33;;
21243;SDS011;10780;50.942;4.028;2023-02-13T12:25:20;29.75;;;18.65;;
21243;SDS011;10780;50.942;4.028;2023-02-13T12:36:15;32.58;;;18.40;;
21243;SDS011;10780;50.942;4.028;2023-02-13T12:42:04;25.67;;;17.23;;
21243;SDS011;10780;50.942;4.028;2023-02-13T12:44:46;26.02;;;17.33;;
21243;SDS011;10780;50.942;4.028;2023-02-13T12:47:25;28.52;;;17.60;;
21243;SDS011;10780;50.942;4.028;2023-02-13T12:50:18;27.80;;;17.73;;
21243;SDS011;10780;50.942;4.028;2023-02-13T12:53:07;29.90;;;16.60;;
21243;SDS011;10780;50.942;4.028;2023-02-13T13:12:01;24.98;;;16.17;;
21243;SDS011;10780;50.942;4.028;2023-02-13T13:14:51;27.08;;;16.90;;
21243;SDS011;10780;50.942;4.028;2023-02-13T13:22:56;21.48;;;15.90;;
21243;SDS011;10780;50.942;4.028;2023-02-13T13:28:22;25.60;;;16.45;;
21243;SDS011;10780;50.942;4.028;2023-02-13T13:31:09;28.70;;;16.98;;
21243;SDS011;10780;50.942;4.028;2023-02-13T13:33:42;26.85;;;17.25;;
21243;SDS011;10780;50.942;4.028;2023-02-13T13:39:15;26.75;;;17.17;;
21243;SDS011;10780;50.942;4.028;2023-02-13T13:47:28;25.95;;;16.80;;
21243;SDS011;10780;50.942;4.028;2023-02-13T13:49:57;22.75;;;15.30;;
21243;SDS011;10780;50.942;4.028;2023-02-13T13:55:03;27.85;;;17.08;;
21243;SDS011;10780;50.942;4.028;2023-02-13T14:08:01;25.33;;;15.88;;
21243;SDS011;10780;50.942;4.028;2023-02-13T14:13:27;26.77;;;16.75;;
21243;SDS011;10780;50.942;4.028;2023-02-13T14:15:55;25.05;;;16.17;;
21243;SDS011;10780;50.942;4.028;2023-02-13T14:18:21;27.65;;;16.90;;
21243;SDS011;10780;50.942;4.028;2023-02-13T14:20:53;24.35;;;17.05;;
21243;SDS011;10780;50.942;4.028;2023-02-13T14:28:36;23.83;;;15.93;;
21243;SDS011;10780;50.942;4.028;2023-02-13T14:31:06;24.25;;;16.35;;
21243;SDS011;10780;50.942;4.028;2023-02-13T14:33:58;27.70;;;16.92;;
21243;SDS011;10780;50.942;4.028;2023-02-13T14:36:27;24.05;;;16.75;;
21243;SDS011;10780;50.942;4.028;2023-02-13T14:38:58;25.42;;;16.75;;
21243;SDS011;10780;50.942;4.028;2023-02-13T14:44:28;24.77;;;16.48;;
21243;SDS011;10780;50.942;4.028;2023-02-13T14:47:10;28.98;;;16.15;;
21243;SDS011;10780;50.942;4.028;2023-02-13T14:49:45;26.98;;;17.45;;
21243;SDS011;10780;50.942;4.028;2023-02-13T14:52:17;27.40;;;17.30;;
21243;SDS011;10780;50.942;4.028;2023-02-13T14:54:53;29.20;;;18.63;;
21243;SDS011;10780;50.942;4.028;2023-02-13T15:00:00;24.63;;;17.20;;
21243;SDS011;10780;50.942;4.028;2023-02-13T15:02:43;29.55;;;17.55;;
21243;SDS011;10780;50.942;4.028;2023-02-13T15:05:14;27.83;;;16.30;;
21243;SDS011;10780;50.942;4.028;2023-02-13T15:07:45;28.30;;;16.92;;
21243;SDS011;10780;50.942;4.028;2023-02-13T15:13:16;24.33;;;16.80;;
21243;SDS011;10780;50.942;4.028;2023-02-13T15:16:05;27.55;;;16.35;;
21243;SDS011;10780;50.942;4.028;2023-02-13T15:18:36;25.67;;;16.67;;
21243;SDS011;10780;50.942;4.028;2023-02-13T15:21:12;26.38;;;17.42;;
21243;SDS011;10780;50.942;4.028;2023-02-13T15:23:50;25.98;;;17.05;;
21243;SDS011;10780;50.942;4.028;2023-02-13T15:26:19;27.92;;;17.15;;
21243;SDS011;10780;50.942;4.028;2023-02-13T15:31:44;26.77;;;18.20;;
21243;SDS011;10780;50.942;4.028;2023-02-13T15:34:19;26.60;;;16.52;;
21243;SDS011;10780;50.942;4.028;2023-02-13T15:36:47;24.85;;;16.42;;
21243;SDS011;10780;50.942;4.028;2023-02-13T15:39:16;31.98;;;17.05;;
21243;SDS011;10780;50.942;4.028;2023-02-13T15:41:45;23.95;;;16.92;;
21243;SDS011;10780;50.942;4.028;2023-02-13T15:44:56;26.23;;;16.23;;
21243;SDS011;10780;50.942;4.028;2023-02-13T15:47:05;27.15;;;16.95;;
21243;SDS011;10780;50.942;4.028;2023-02-13T15:49:36;25.65;;;16.50;;
21243;SDS011;10780;50.942;4.028;2023-02-13T15:52:07;26.70;;;16.23;;
21243;SDS011;10780;50.942;4.028;2023-02-13T15:54:45;27.88;;;16.88;;
21243;SDS011;10780;50.942;4.028;2023-02-13T15:57:12;24.27;;;15.38;;
21243;SDS011;10780;50.942;4.028;2023-02-13T15:59:38;24.23;;;16.35;;
21243;SDS011;10780;50.942;4.028;2023-02-13T16:02:08;25.42;;;16.95;;
21243;SDS011;10780;50.942;4.028;2023-02-13T16:04:37;24.05;;;16.63;;
21243;SDS011;10780;50.942;4.028;2023-02-13T16:07:06;25.65;;;17.05;;
21243;SDS011;10780;50.942;4.028;2023-02-13T16:09:35;27.50;;;17.30;;
21243;SDS011;10780;50.942;4.028;2023-02-13T16:12:05;28.35;;;17.50;;
21243;SDS011;10780;50.942;4.028;2023-02-13T16:14:55;33.15;;;17.98;;
21243;SDS011;10780;50.942;4.028;2023-02-13T16:17:32;25.70;;;17.10;;
21243;SDS011;10780;50.942;4.028;2023-02-13T16:20:13;24.02;;;16.80;;
21243;SDS011;10780;50.942;4.028;2023-02-13T16:22:48;27.10;;;16.48;;
21243;SDS011;10780;50.942;4.028;2023-02-13T16:27:49;27.38;;;17.13;;
21243;SDS011;10780;50.942;4.028;2023-02-13T16:32:49;26.60;;;17.95;;
21243;SDS011;10780;50.942;4.028;2023-02-13T16:37:48;26.73;;;17.02;;
21243;SDS011;10780;50.942;4.028;2023-02-13T16:48:43;27.10;;;16.67;;
21243;SDS011;10780;50.942;4.028;2023-02-13T16:51:12;26.27;;;16.55;;
21243;SDS011;10780;50.942;4.028;2023-02-13T16:53:37;23.80;;;16.08;;
21243;SDS011;10780;50.942;4.028;2023-02-13T16:56:07;30.73;;;17.70;;
21243;SDS011;10780;50.942;4.028;2023-02-13T16:58:34;25.35;;;16.80;;
21243;SDS011;10780;50.942;4.028;2023-02-13T17:01:01;28.10;;;16.77;;
21243;SDS011;10780;50.942;4.028;2023-02-13T17:03:29;27.40;;;16.80;;
21243;SDS011;10780;50.942;4.028;2023-02-13T17:05:58;27.23;;;16.60;;
21243;SDS011;10780;50.942;4.028;2023-02-13T17:08:26;24.30;;;15.88;;
21243;SDS011;10780;50.942;4.028;2023-02-13T17:11:05;23.73;;;15.95;;
21243;SDS011;10780;50.942;4.028;2023-02-13T17:13:32;30.40;;;17.85;;
21243;SDS011;10780;50.942;4.028;2023-02-13T17:15:58;30.90;;;18.25;;
21243;SDS011;10780;50.942;4.028;2023-02-13T17:18:24;29.40;;;18.42;;
21243;SDS011;10780;50.942;4.028;2023-02-13T17:20:51;29.65;;;18.67;;
21243;SDS011;10780;50.942;4.028;2023-02-13T17:23:18;29.27;;;17.08;;
21243;SDS011;10780;50.942;4.028;2023-02-13T17:25:46;34.17;;;17.63;;
21243;SDS011;10780;50.942;4.028;2023-02-13T17:28:21;28.30;;;17.50;;
21243;SDS011;10780;50.942;4.028;2023-02-13T17:30:49;31.27;;;18.50;;
21243;SDS011;10780;50.942;4.028;2023-02-13T17:33:26;29.52;;;17.92;;
21243;SDS011;10780;50.942;4.028;2023-02-13T17:35:56;28.70;;;17.65;;
21243;SDS011;10780;50.942;4.028;2023-02-13T17:38:22;32.13;;;19.00;;
21243;SDS011;10780;50.942;4.028;2023-02-13T17:40:48;32.83;;;19.52;;